sensor_id;sensor_type;location;lat;lon;timestamp;P1;durP1;ratioP1;P2;durP2;ratioP2
13693;SDS011;6919;52.344;14.518;2022-08-16T00:00:25;9.10;;;7.20;;
13693;SDS011;6919;52.344;14.518;2022-08-16T00:03:04;9.13;;;7.93;;
13693;SDS011;6919;52.344;14.518;2022-08-16T00:05:39;9.27;;;8.37;;
13693;SDS011;6919;52.344;14.518;2022-08-16T00:08:22;8.93;;;8.03;;
13693;SDS011;6919;52.344;14.518;2022-08-16T00:11:04;11.93;;;8.60;;
13693;SDS011;6919;52.344;14.518;2022-08-16T00:13:40;11.60;;;9.10;;
13693;SDS011;6919;52.344;14.518;2022-08-16T00:16:20;12.07;;;9.07;;
13693;SDS011;6919;52.344;14.518;2022-08-16T00:19:09;9.97;;;8.73;;
13693;SDS011;6919;52.344;14.518;2022-08-16T00:21:39;13.10;;;9.23;;
13693;SDS011;6919;52.344;14.518;2022-08-16T00:24:08;9.40;;;8.50;;
13693;SDS011;6919;52.344;14.518;2022-08-16T00:26:39;11.90;;;8.77;;
13693;SDS011;6919;52.344;14.518;2022-08-16T00:29:11;12.33;;;8.67;;
13693;SDS011;6919;52.344;14.518;2022-08-16T00:31:41;10.20;;;8.27;;
13693;SDS011;6919;52.344;14.518;2022-08-16T00:34:27;10.20;;;9.20;;
13693;SDS011;6919;52.344;14.518;2022-08-16T00:37:16;11.27;;;8.47;;
13693;SDS011;6919;52.344;14.518;2022-08-16T00:39:46;11.43;;;8.20;;
13693;SDS011;6919;52.344;14.518;2022-08-16T00:42:25;8.93;;;8.07;;
13693;SDS011;6919;52.344;14.518;2022-08-16T00:45:01;10.00;;;9.00;;
13693;SDS011;6919;52.344;14.518;2022-08-16T00:47:36;10.00;;;8.90;;
13693;SDS011;6919;52.344;14.518;2022-08-16T00:50:15;8.80;;;7.90;;
13693;SDS011;6919;52.344;14.518;2022-08-16T00:52:46;10.10;;;8.07;;
13693;SDS011;6919;52.344;14.518;2022-08-16T00:55:16;9.50;;;8.60;;
13693;SDS011;6919;52.344;14.518;2022-08-16T00:57:49;10.93;;;8.33;;
13693;SDS011;6919;52.344;14.518;2022-08-16T01:00:27;11.30;;;9.50;;
13693;SDS011;6919;52.344;14.518;2022-08-16T01:03:00;9.80;;;8.73;;
13693;SDS011;6919;52.344;14.518;2022-08-16T01:05:37;12.37;;;9.13;;
13693;SDS011;6919;52.344;14.518;2022-08-16T01:08:06;10.33;;;9.03;;
13693;SDS011;6919;52.344;14.518;2022-08-16T01:10:55;12.20;;;9.13;;
13693;SDS011;6919;52.344;14.518;2022-08-16T01:13:29;13.57;;;9.13;;
13693;SDS011;6919;52.344;14.518;2022-08-16T01:16:00;15.60;;;9.50;;
13693;SDS011;6919;52.344;14.518;2022-08-16T01:18:37;12.23;;;9.40;;
13693;SDS011;6919;52.344;14.518;2022-08-16T01:21:13;11.20;;;8.83;;
13693;SDS011;6919;52.344;14.518;2022-08-16T01:24:02;10.97;;;8.80;;
13693;SDS011;6919;52.344;14.518;2022-08-16T01:27:14;10.50;;;8.80;;
13693;SDS011;6919;52.344;14.518;2022-08-16T01:29:48;12.33;;;10.13;;
13693;SDS011;6919;52.344;14.518;2022-08-16T01:32:26;12.30;;;10.03;;
13693;SDS011;6919;52.344;14.518;2022-08-16T01:34:59;14.17;;;9.77;;
13693;SDS011;6919;52.344;14.518;2022-08-16T01:37:29;15.53;;;9.50;;
13693;SDS011;6919;52.344;14.518;2022-08-16T01:40:09;12.57;;;9.57;;
13693;SDS011;6919;52.344;14.518;2022-08-16T01:42:40;10.90;;;9.80;;
13693;SDS011;6919;52.344;14.518;2022-08-16T01:45:15;10.60;;;9.17;;
13693;SDS011;6919;52.344;14.518;2022-08-16T01:47:46;14.90;;;9.77;;
13693;SDS011;6919;52.344;14.518;2022-08-16T01:50:18;10.10;;;9.13;;
13693;SDS011;6919;52.344;14.518;2022-08-16T01:53:08;16.03;;;10.50;;
13693;SDS011;6919;52.344;14.518;2022-08-16T01:55:39;11.60;;;10.13;;
13693;SDS011;6919;52.344;14.518;2022-08-16T01:58:19;14.93;;;10.83;;
13693;SDS011;6919;52.344;14.518;2022-08-16T02:00:49;10.53;;;9.43;;
13693;SDS011;6919;52.344;14.518;2022-08-16T02:03:20;12.57;;;10.60;;
13693;SDS011;6919;52.344;14.518;2022-08-16T02:05:51;12.00;;;10.37;;
13693;SDS011;6919;52.344;14.518;2022-08-16T02:08:20;16.53;;;11.17;;
13693;SDS011;6919;52.344;14.518;2022-08-16T02:11:00;13.33;;;10.77;;
13693;SDS011;6919;52.344;14.518;2022-08-16T02:13:32;12.70;;;11.37;;
13693;SDS011;6919;52.344;14.518;2022-08-16T02:16:07;12.87;;;10.90;;
13693;SDS011;6919;52.344;14.518;2022-08-16T02:18:44;14.37;;;11.03;;
13693;SDS011;6919;52.344;14.518;2022-08-16T02:21:13;13.33;;;11.47;;
13693;SDS011;6919;52.344;14.518;2022-08-16T02:23:56;12.60;;;11.40;;
13693;SDS011;6919;52.344;14.518;2022-08-16T02:26:26;12.13;;;10.83;;
13693;SDS011;6919;52.344;14.518;2022-08-16T02:28:59;14.03;;;10.50;;
13693;SDS011;6919;52.344;14.518;2022-08-16T02:31:28;12.60;;;11.30;;
13693;SDS011;6919;52.344;14.518;2022-08-16T02:34:17;19.47;;;10.87;;
13693;SDS011;6919;52.344;14.518;2022-08-16T02:36:58;13.43;;;11.43;;
13693;SDS011;6919;52.344;14.518;2022-08-16T02:39:26;13.90;;;11.40;;
13693;SDS011;6919;52.344;14.518;2022-08-16T02:41:56;11.93;;;10.63;;
13693;SDS011;6919;52.344;14.518;2022-08-16T02:44:25;13.13;;;11.77;;
13693;SDS011;6919;52.344;14.518;2022-08-16T02:46:54;13.57;;;11.93;;
13693;SDS011;6919;52.344;14.518;2022-08-16T02:49:24;14.97;;;12.20;;
13693;SDS011;6919;52.344;14.518;2022-08-16T02:52:13;14.10;;;12.60;;
13693;SDS011;6919;52.344;14.518;2022-08-16T02:54:50;14.63;;;13.23;;
13693;SDS011;6919;52.344;14.518;2022-08-16T02:57:22;16.33;;;13.90;;
13693;SDS011;6919;52.344;14.518;2022-08-16T02:59:52;15.13;;;13.63;;
13693;SDS011;6919;52.344;14.518;2022-08-16T03:02:20;15.13;;;13.53;;
13693;SDS011;6919;52.344;14.518;2022-08-16T03:04:57;15.70;;;14.10;;
13693;SDS011;6919;52.344;14.518;2022-08-16T03:07:27;18.20;;;13.83;;
13693;SDS011;6919;52.344;14.518;2022-08-16T03:10:02;15.93;;;14.33;;
13693;SDS011;6919;52.344;14.518;2022-08-16T03:12:33;18.07;;;14.90;;
13693;SDS011;6919;52.344;14.518;2022-08-16T03:15:21;16.90;;;14.23;;
13693;SDS011;6919;52.344;14.518;2022-08-16T03:17:52;20.63;;;15.27;;
13693;SDS011;6919;52.344;14.518;2022-08-16T03:20:21;18.17;;;15.70;;
13693;SDS011;6919;52.344;14.518;2022-08-16T03:22:59;16.13;;;13.83;;
13693;SDS011;6919;52.344;14.518;2022-08-16T03:25:28;15.43;;;14.03;;
13693;SDS011;6919;52.344;14.518;2022-08-16T03:28:11;16.37;;;14.60;;
13693;SDS011;6919;52.344;14.518;2022-08-16T03:30:43;18.77;;;14.60;;
13693;SDS011;6919;52.344;14.518;2022-08-16T03:33:12;18.60;;;14.67;;
13693;SDS011;6919;52.344;14.518;2022-08-16T03:35:41;17.47;;;15.10;;
13693;SDS011;6919;52.344;14.518;2022-08-16T03:38:14;18.83;;;14.33;;
13693;SDS011;6919;52.344;14.518;2022-08-16T03:41:00;17.60;;;14.50;;
13693;SDS011;6919;52.344;14.518;2022-08-16T03:43:43;16.33;;;14.63;;
13693;SDS011;6919;52.344;14.518;2022-08-16T03:46:17;16.70;;;14.67;;
13693;SDS011;6919;52.344;14.518;2022-08-16T03:49:07;16.27;;;14.67;;
13693;SDS011;6919;52.344;14.518;2022-08-16T03:51:38;17.27;;;14.67;;
13693;SDS011;6919;52.344;14.518;2022-08-16T03:54:08;18.73;;;14.97;;
13693;SDS011;6919;52.344;14.518;2022-08-16T03:56:38;16.57;;;14.87;;
13693;SDS011;6919;52.344;14.518;2022-08-16T03:59:24;20.40;;;15.03;;
13693;SDS011;6919;52.344;14.518;2022-08-16T04:01:55;17.47;;;14.87;;
13693;SDS011;6919;52.344;14.518;2022-08-16T04:04:26;15.63;;;14.13;;
13693;SDS011;6919;52.344;14.518;2022-08-16T04:06:59;16.60;;;14.30;;
13693;SDS011;6919;52.344;14.518;2022-08-16T04:09:30;16.97;;;15.27;;
13693;SDS011;6919;52.344;14.518;2022-08-16T04:12:01;16.77;;;15.07;;
13693;SDS011;6919;52.344;14.518;2022-08-16T04:14:38;16.27;;;14.60;;
13693;SDS011;6919;52.344;14.518;2022-08-16T04:17:13;16.30;;;14.53;;
13693;SDS011;6919;52.344;14.518;2022-08-16T04:19:42;14.97;;;13.47;;
13693;SDS011;6919;52.344;14.518;2022-08-16T04:22:12;16.20;;;14.53;;
13693;SDS011;6919;52.344;14.518;2022-08-16T04:24:42;22.67;;;14.63;;
13693;SDS011;6919;52.344;14.518;2022-08-16T04:27:20;16.70;;;14.10;;
13693;SDS011;6919;52.344;14.518;2022-08-16T04:29:55;15.73;;;13.97;;
13693;SDS011;6919;52.344;14.518;2022-08-16T04:32:28;15.00;;;13.47;;
13693;SDS011;6919;52.344;14.518;2022-08-16T04:34:57;17.90;;;13.80;;
13693;SDS011;6919;52.344;14.518;2022-08-16T04:37:32;14.17;;;12.73;;
13693;SDS011;6919;52.344;14.518;2022-08-16T04:40:07;21.07;;;13.60;;
13693;SDS011;6919;52.344;14.518;2022-08-16T04:42:47;15.97;;;12.60;;
13693;SDS011;6919;52.344;14.518;2022-08-16T04:45:17;14.60;;;13.03;;
13693;SDS011;6919;52.344;14.518;2022-08-16T04:48:02;16.63;;;12.90;;
13693;SDS011;6919;52.344;14.518;2022-08-16T04:50:31;14.17;;;12.63;;
13693;SDS011;6919;52.344;14.518;2022-08-16T04:52:59;15.97;;;12.23;;
13693;SDS011;6919;52.344;14.518;2022-08-16T04:55:28;15.40;;;12.03;;
13693;SDS011;6919;52.344;14.518;2022-08-16T04:58:04;16.37;;;12.20;;
13693;SDS011;6919;52.344;14.518;2022-08-16T05:00:55;15.27;;;12.30;;
13693;SDS011;6919;52.344;14.518;2022-08-16T05:03:25;13.20;;;11.80;;
13693;SDS011;6919;52.344;14.518;2022-08-16T05:05:54;17.50;;;12.50;;
13693;SDS011;6919;52.344;14.518;2022-08-16T05:08:30;16.83;;;12.37;;
13693;SDS011;6919;52.344;14.518;2022-08-16T05:11:00;13.97;;;12.67;;
13693;SDS011;6919;52.344;14.518;2022-08-16T05:13:35;14.47;;;11.83;;
13693;SDS011;6919;52.344;14.518;2022-08-16T05:16:10;13.60;;;12.30;;
13693;SDS011;6919;52.344;14.518;2022-08-16T05:18:45;13.60;;;12.20;;
13693;SDS011;6919;52.344;14.518;2022-08-16T05:21:15;13.20;;;11.90;;
13693;SDS011;6919;52.344;14.518;2022-08-16T05:23:47;13.07;;;11.37;;
13693;SDS011;6919;52.344;14.518;2022-08-16T05:26:21;13.43;;;11.67;;
13693;SDS011;6919;52.344;14.518;2022-08-16T05:28:53;13.60;;;12.20;;
13693;SDS011;6919;52.344;14.518;2022-08-16T05:31:23;13.10;;;11.77;;
13693;SDS011;6919;52.344;14.518;2022-08-16T05:33:55;15.40;;;11.50;;
13693;SDS011;6919;52.344;14.518;2022-08-16T05:36:25;13.60;;;11.67;;
13693;SDS011;6919;52.344;14.518;2022-08-16T05:39:03;12.67;;;11.37;;
13693;SDS011;6919;52.344;14.518;2022-08-16T05:41:34;13.30;;;11.93;;
13693;SDS011;6919;52.344;14.518;2022-08-16T05:44:11;11.97;;;10.83;;
13693;SDS011;6919;52.344;14.518;2022-08-16T05:46:51;11.93;;;10.73;;
13693;SDS011;6919;52.344;14.518;2022-08-16T05:49:26;13.90;;;10.83;;
13693;SDS011;6919;52.344;14.518;2022-08-16T05:52:05;13.60;;;12.00;;
13693;SDS011;6919;52.344;14.518;2022-08-16T05:54:38;15.43;;;11.30;;
13693;SDS011;6919;52.344;14.518;2022-08-16T05:57:12;12.73;;;11.43;;
13693;SDS011;6919;52.344;14.518;2022-08-16T05:59:41;13.07;;;10.80;;
13693;SDS011;6919;52.344;14.518;2022-08-16T06:02:17;12.60;;;11.40;;
13693;SDS011;6919;52.344;14.518;2022-08-16T06:04:54;13.27;;;11.97;;
13693;SDS011;6919;52.344;14.518;2022-08-16T06:07:22;12.73;;;9.93;;
13693;SDS011;6919;52.344;14.518;2022-08-16T06:09:52;16.10;;;12.03;;
13693;SDS011;6919;52.344;14.518;2022-08-16T06:12:25;11.47;;;10.27;;
13693;SDS011;6919;52.344;14.518;2022-08-16T06:14:56;12.47;;;11.20;;
13693;SDS011;6919;52.344;14.518;2022-08-16T06:17:34;12.97;;;10.70;;
13693;SDS011;6919;52.344;14.518;2022-08-16T06:20:10;12.07;;;9.93;;
13693;SDS011;6919;52.344;14.518;2022-08-16T06:22:48;11.37;;;9.97;;
13693;SDS011;6919;52.344;14.518;2022-08-16T06:25:29;12.77;;;8.73;;
13693;SDS011;6919;52.344;14.518;2022-08-16T06:28:04;15.57;;;9.73;;
13693;SDS011;6919;52.344;14.518;2022-08-16T06:30:35;11.23;;;8.43;;
13693;SDS011;6919;52.344;14.518;2022-08-16T06:33:10;10.90;;;8.80;;
13693;SDS011;6919;52.344;14.518;2022-08-16T06:35:48;9.73;;;8.73;;
13693;SDS011;6919;52.344;14.518;2022-08-16T06:38:25;10.93;;;8.13;;
13693;SDS011;6919;52.344;14.518;2022-08-16T06:40:59;9.87;;;8.70;;
13693;SDS011;6919;52.344;14.518;2022-08-16T06:43:39;11.17;;;8.87;;
13693;SDS011;6919;52.344;14.518;2022-08-16T06:46:11;11.13;;;8.27;;
13693;SDS011;6919;52.344;14.518;2022-08-16T06:48:58;10.73;;;8.07;;
13693;SDS011;6919;52.344;14.518;2022-08-16T06:51:30;7.63;;;6.93;;
13693;SDS011;6919;52.344;14.518;2022-08-16T06:54:13;9.87;;;7.97;;
13693;SDS011;6919;52.344;14.518;2022-08-16T06:56:43;10.67;;;7.07;;
13693;SDS011;6919;52.344;14.518;2022-08-16T06:59:11;7.07;;;6.37;;
13693;SDS011;6919;52.344;14.518;2022-08-16T07:01:40;9.07;;;6.70;;
13693;SDS011;6919;52.344;14.518;2022-08-16T07:04:21;7.60;;;6.80;;
13693;SDS011;6919;52.344;14.518;2022-08-16T07:07:02;6.93;;;6.30;;
13693;SDS011;6919;52.344;14.518;2022-08-16T07:09:35;6.73;;;6.13;;
13693;SDS011;6919;52.344;14.518;2022-08-16T07:12:05;6.93;;;6.07;;
13693;SDS011;6919;52.344;14.518;2022-08-16T07:14:34;9.10;;;5.93;;
13693;SDS011;6919;52.344;14.518;2022-08-16T07:17:04;7.63;;;6.17;;
13693;SDS011;6919;52.344;14.518;2022-08-16T07:19:39;10.20;;;6.60;;
13693;SDS011;6919;52.344;14.518;2022-08-16T07:22:28;9.70;;;5.83;;
13693;SDS011;6919;52.344;14.518;2022-08-16T07:25:05;8.13;;;5.50;;
13693;SDS011;6919;52.344;14.518;2022-08-16T07:27:39;11.67;;;5.77;;
13693;SDS011;6919;52.344;14.518;2022-08-16T07:30:09;6.73;;;6.03;;
13693;SDS011;6919;52.344;14.518;2022-08-16T07:33:00;10.83;;;6.43;;
13693;SDS011;6919;52.344;14.518;2022-08-16T07:35:33;6.40;;;5.80;;
13693;SDS011;6919;52.344;14.518;2022-08-16T07:38:09;5.73;;;5.23;;
13693;SDS011;6919;52.344;14.518;2022-08-16T07:40:45;6.97;;;4.83;;
13693;SDS011;6919;52.344;14.518;2022-08-16T07:43:33;5.67;;;5.07;;
13693;SDS011;6919;52.344;14.518;2022-08-16T07:46:06;6.10;;;5.50;;
13693;SDS011;6919;52.344;14.518;2022-08-16T07:48:55;5.07;;;4.57;;
13693;SDS011;6919;52.344;14.518;2022-08-16T07:51:29;5.20;;;4.80;;
13693;SDS011;6919;52.344;14.518;2022-08-16T07:54:03;5.00;;;4.50;;
13693;SDS011;6919;52.344;14.518;2022-08-16T07:56:36;5.60;;;5.10;;
13693;SDS011;6919;52.344;14.518;2022-08-16T07:59:04;5.67;;;5.17;;
13693;SDS011;6919;52.344;14.518;2022-08-16T08:01:33;6.83;;;4.93;;
13693;SDS011;6919;52.344;14.518;2022-08-16T08:04:03;5.40;;;4.90;;
13693;SDS011;6919;52.344;14.518;2022-08-16T08:06:39;6.27;;;5.03;;
13693;SDS011;6919;52.344;14.518;2022-08-16T08:09:08;5.73;;;5.23;;
13693;SDS011;6919;52.344;14.518;2022-08-16T08:11:37;8.83;;;5.60;;
13693;SDS011;6919;52.344;14.518;2022-08-16T08:14:25;6.93;;;5.60;;
13693;SDS011;6919;52.344;14.518;2022-08-16T08:16:55;6.30;;;5.70;;
13693;SDS011;6919;52.344;14.518;2022-08-16T08:19:26;7.03;;;5.73;;
13693;SDS011;6919;52.344;14.518;2022-08-16T08:21:56;5.80;;;5.30;;
13693;SDS011;6919;52.344;14.518;2022-08-16T08:24:31;6.43;;;5.83;;
13693;SDS011;6919;52.344;14.518;2022-08-16T08:27:02;7.27;;;5.50;;
13693;SDS011;6919;52.344;14.518;2022-08-16T08:29:32;6.37;;;5.43;;
13693;SDS011;6919;52.344;14.518;2022-08-16T08:32:08;7.03;;;5.13;;
13693;SDS011;6919;52.344;14.518;2022-08-16T08:34:56;6.17;;;5.33;;
13693;SDS011;6919;52.344;14.518;2022-08-16T08:37:30;5.80;;;5.00;;
13693;SDS011;6919;52.344;14.518;2022-08-16T08:40:19;6.33;;;5.20;;
13693;SDS011;6919;52.344;14.518;2022-08-16T08:42:51;5.13;;;4.73;;
13693;SDS011;6919;52.344;14.518;2022-08-16T08:45:37;6.30;;;5.07;;
13693;SDS011;6919;52.344;14.518;2022-08-16T08:48:14;7.10;;;5.97;;
13693;SDS011;6919;52.344;14.518;2022-08-16T08:51:00;8.20;;;5.50;;
13693;SDS011;6919;52.344;14.518;2022-08-16T08:53:31;6.23;;;5.63;;
13693;SDS011;6919;52.344;14.518;2022-08-16T08:56:02;5.82;;;4.80;;
13693;SDS011;6919;52.344;14.518;2022-08-16T08:58:50;6.50;;;5.23;;
13693;SDS011;6919;52.344;14.518;2022-08-16T09:01:28;7.43;;;5.27;;
13693;SDS011;6919;52.344;14.518;2022-08-16T09:04:02;6.03;;;4.77;;
13693;SDS011;6919;52.344;14.518;2022-08-16T09:06:32;6.13;;;5.50;;
13693;SDS011;6919;52.344;14.518;2022-08-16T09:09:10;7.33;;;5.97;;
13693;SDS011;6919;52.344;14.518;2022-08-16T09:11:42;5.73;;;4.90;;
13693;SDS011;6919;52.344;14.518;2022-08-16T09:14:24;9.53;;;6.10;;
13693;SDS011;6919;52.344;14.518;2022-08-16T09:16:52;9.03;;;5.97;;
13693;SDS011;6919;52.344;14.518;2022-08-16T09:19:30;9.43;;;5.33;;
13693;SDS011;6919;52.344;14.518;2022-08-16T09:22:05;6.67;;;5.97;;
13693;SDS011;6919;52.344;14.518;2022-08-16T09:24:48;10.03;;;6.07;;
13693;SDS011;6919;52.344;14.518;2022-08-16T09:27:25;7.30;;;6.33;;
13693;SDS011;6919;52.344;14.518;2022-08-16T09:30:14;7.67;;;6.20;;
13693;SDS011;6919;52.344;14.518;2022-08-16T09:33:01;6.22;;;5.57;;
13693;SDS011;6919;52.344;14.518;2022-08-16T09:35:33;5.97;;;5.30;;
13693;SDS011;6919;52.344;14.518;2022-08-16T09:38:05;5.50;;;5.00;;
13693;SDS011;6919;52.344;14.518;2022-08-16T09:40:38;6.63;;;5.93;;
13693;SDS011;6919;52.344;14.518;2022-08-16T09:43:08;7.80;;;5.50;;
13693;SDS011;6919;52.344;14.518;2022-08-16T09:45:58;6.73;;;5.90;;
13693;SDS011;6919;52.344;14.518;2022-08-16T09:48:28;7.93;;;6.65;;
13693;SDS011;6919;52.344;14.518;2022-08-16T09:51:10;7.78;;;5.80;;
13693;SDS011;6919;52.344;14.518;2022-08-16T09:53:40;7.07;;;5.32;;
13693;SDS011;6919;52.344;14.518;2022-08-16T09:56:18;6.82;;;5.22;;
13693;SDS011;6919;52.344;14.518;2022-08-16T09:58:52;6.22;;;5.38;;
13693;SDS011;6919;52.344;14.518;2022-08-16T10:01:31;6.28;;;5.57;;
13693;SDS011;6919;52.344;14.518;2022-08-16T10:03:59;6.03;;;5.43;;
13693;SDS011;6919;52.344;14.518;2022-08-16T10:06:31;6.72;;;5.75;;
13693;SDS011;6919;52.344;14.518;2022-08-16T10:09:01;5.70;;;4.75;;
13693;SDS011;6919;52.344;14.518;2022-08-16T10:11:35;7.10;;;5.72;;
13693;SDS011;6919;52.344;14.518;2022-08-16T10:14:37;6.72;;;5.32;;
13693;SDS011;6919;52.344;14.518;2022-08-16T10:17:11;6.95;;;5.60;;
13693;SDS011;6919;52.344;14.518;2022-08-16T10:19:40;7.45;;;5.10;;
13693;SDS011;6919;52.344;14.518;2022-08-16T10:22:15;7.85;;;4.68;;
13693;SDS011;6919;52.344;14.518;2022-08-16T10:24:48;6.25;;;5.10;;
13693;SDS011;6919;52.344;14.518;2022-08-16T10:27:26;6.25;;;5.65;;
13693;SDS011;6919;52.344;14.518;2022-08-16T10:30:14;7.82;;;5.40;;
13693;SDS011;6919;52.344;14.518;2022-08-16T10:32:51;5.32;;;4.80;;
13693;SDS011;6919;52.344;14.518;2022-08-16T10:35:20;4.60;;;4.20;;
13693;SDS011;6919;52.344;14.518;2022-08-16T10:37:48;5.60;;;5.00;;
13693;SDS011;6919;52.344;14.518;2022-08-16T10:40:18;5.53;;;5.03;;
13693;SDS011;6919;52.344;14.518;2022-08-16T10:42:56;5.43;;;4.68;;
13693;SDS011;6919;52.344;14.518;2022-08-16T10:45:26;5.00;;;4.50;;
13693;SDS011;6919;52.344;14.518;2022-08-16T10:48:03;5.88;;;4.65;;
13693;SDS011;6919;52.344;14.518;2022-08-16T10:50:52;4.60;;;4.10;;
13693;SDS011;6919;52.344;14.518;2022-08-16T10:53:23;8.82;;;4.47;;
13693;SDS011;6919;52.344;14.518;2022-08-16T10:55:58;5.30;;;4.80;;
13693;SDS011;6919;52.344;14.518;2022-08-16T10:58:33;6.68;;;5.40;;
13693;SDS011;6919;52.344;14.518;2022-08-16T11:01:04;5.25;;;4.85;;
13693;SDS011;6919;52.344;14.518;2022-08-16T11:03:53;5.07;;;4.57;;
13693;SDS011;6919;52.344;14.518;2022-08-16T11:06:24;4.63;;;4.13;;
13693;SDS011;6919;52.344;14.518;2022-08-16T11:08:54;5.95;;;4.07;;
13693;SDS011;6919;52.344;14.518;2022-08-16T11:11:43;4.72;;;4.25;;
13693;SDS011;6919;52.344;14.518;2022-08-16T11:14:33;18.08;;;5.50;;
13693;SDS011;6919;52.344;14.518;2022-08-16T11:17:03;7.07;;;4.32;;
13693;SDS011;6919;52.344;14.518;2022-08-16T11:19:36;4.78;;;4.30;;
13693;SDS011;6919;52.344;14.518;2022-08-16T11:22:26;5.07;;;3.17;;
13693;SDS011;6919;52.344;14.518;2022-08-16T11:25:14;6.90;;;3.78;;
13693;SDS011;6919;52.344;14.518;2022-08-16T11:28:04;6.95;;;4.13;;
13693;SDS011;6919;52.344;14.518;2022-08-16T11:30:35;4.40;;;3.78;;
13693;SDS011;6919;52.344;14.518;2022-08-16T11:33:05;5.25;;;4.00;;
13693;SDS011;6919;52.344;14.518;2022-08-16T11:35:59;4.95;;;4.07;;
13693;SDS011;6919;52.344;14.518;2022-08-16T11:38:52;5.63;;;4.30;;
13693;SDS011;6919;52.344;14.518;2022-08-16T11:41:45;7.10;;;4.35;;
13693;SDS011;6919;52.344;14.518;2022-08-16T11:44:18;7.20;;;4.15;;
13693;SDS011;6919;52.344;14.518;2022-08-16T11:47:08;5.28;;;4.05;;
13693;SDS011;6919;52.344;14.518;2022-08-16T11:49:36;5.82;;;4.32;;
13693;SDS011;6919;52.344;14.518;2022-08-16T11:52:05;6.40;;;4.20;;
13693;SDS011;6919;52.344;14.518;2022-08-16T11:54:33;6.00;;;4.07;;
13693;SDS011;6919;52.344;14.518;2022-08-16T11:57:04;5.47;;;4.10;;
13693;SDS011;6919;52.344;14.518;2022-08-16T11:59:34;4.60;;;4.05;;
13693;SDS011;6919;52.344;14.518;2022-08-16T12:02:05;6.38;;;4.30;;
13693;SDS011;6919;52.344;14.518;2022-08-16T12:04:56;5.45;;;4.40;;
13693;SDS011;6919;52.344;14.518;2022-08-16T12:07:26;7.05;;;4.05;;
13693;SDS011;6919;52.344;14.518;2022-08-16T12:09:58;3.95;;;3.65;;
13693;SDS011;6919;52.344;14.518;2022-08-16T12:12:27;8.43;;;4.10;;
13693;SDS011;6919;52.344;14.518;2022-08-16T12:14:59;6.13;;;4.57;;
13693;SDS011;6919;52.344;14.518;2022-08-16T12:17:29;5.07;;;4.13;;
13693;SDS011;6919;52.344;14.518;2022-08-16T12:19:58;5.57;;;4.20;;
13693;SDS011;6919;52.344;14.518;2022-08-16T12:22:26;4.38;;;3.83;;
13693;SDS011;6919;52.344;14.518;2022-08-16T12:25:01;4.85;;;3.50;;
13693;SDS011;6919;52.344;14.518;2022-08-16T12:27:31;6.65;;;4.10;;
13693;SDS011;6919;52.344;14.518;2022-08-16T12:30:05;6.53;;;3.70;;
13693;SDS011;6919;52.344;14.518;2022-08-16T12:32:48;4.25;;;3.83;;
13693;SDS011;6919;52.344;14.518;2022-08-16T12:35:24;5.72;;;3.88;;
13693;SDS011;6919;52.344;14.518;2022-08-16T12:37:55;5.65;;;4.13;;
13693;SDS011;6919;52.344;14.518;2022-08-16T12:40:25;4.15;;;3.75;;
13693;SDS011;6919;52.344;14.518;2022-08-16T12:42:58;4.80;;;3.83;;
13693;SDS011;6919;52.344;14.518;2022-08-16T12:45:29;7.05;;;3.50;;
13693;SDS011;6919;52.344;14.518;2022-08-16T12:48:03;3.72;;;3.33;;
13693;SDS011;6919;52.344;14.518;2022-08-16T12:51:08;6.18;;;4.00;;
13693;SDS011;6919;52.344;14.518;2022-08-16T12:53:49;3.92;;;3.53;;
13693;SDS011;6919;52.344;14.518;2022-08-16T12:56:18;5.18;;;3.30;;
13693;SDS011;6919;52.344;14.518;2022-08-16T12:58:51;8.48;;;3.30;;
13693;SDS011;6919;52.344;14.518;2022-08-16T13:01:22;5.75;;;3.55;;
13693;SDS011;6919;52.344;14.518;2022-08-16T13:03:56;3.92;;;3.35;;
13693;SDS011;6919;52.344;14.518;2022-08-16T13:06:46;5.43;;;2.95;;
13693;SDS011;6919;52.344;14.518;2022-08-16T13:09:18;3.30;;;3.00;;
13693;SDS011;6919;52.344;14.518;2022-08-16T13:11:57;4.00;;;2.92;;
13693;SDS011;6919;52.344;14.518;2022-08-16T13:14:31;3.70;;;2.92;;
13693;SDS011;6919;52.344;14.518;2022-08-16T13:17:01;3.20;;;2.78;;
13693;SDS011;6919;52.344;14.518;2022-08-16T13:19:33;4.32;;;3.10;;
13693;SDS011;6919;52.344;14.518;2022-08-16T13:22:22;3.13;;;2.60;;
13693;SDS011;6919;52.344;14.518;2022-08-16T13:24:51;3.83;;;2.78;;
13693;SDS011;6919;52.344;14.518;2022-08-16T13:27:21;3.05;;;2.50;;
13693;SDS011;6919;52.344;14.518;2022-08-16T13:30:10;4.70;;;2.58;;
13693;SDS011;6919;52.344;14.518;2022-08-16T13:33:00;2.63;;;2.17;;
13693;SDS011;6919;52.344;14.518;2022-08-16T13:35:41;6.78;;;2.35;;
13693;SDS011;6919;52.344;14.518;2022-08-16T13:38:20;4.55;;;2.60;;
13693;SDS011;6919;52.344;14.518;2022-08-16T13:40:51;2.67;;;2.47;;
13693;SDS011;6919;52.344;14.518;2022-08-16T13:43:21;3.47;;;2.50;;
13693;SDS011;6919;52.344;14.518;2022-08-16T13:45:51;3.42;;;2.55;;
13693;SDS011;6919;52.344;14.518;2022-08-16T13:48:21;4.55;;;2.55;;
13693;SDS011;6919;52.344;14.518;2022-08-16T13:50:53;6.78;;;2.33;;
13693;SDS011;6919;52.344;14.518;2022-08-16T13:53:29;3.13;;;2.35;;
13693;SDS011;6919;52.344;14.518;2022-08-16T13:55:57;5.07;;;2.50;;
13693;SDS011;6919;52.344;14.518;2022-08-16T13:58:28;2.75;;;2.20;;
13693;SDS011;6919;52.344;14.518;2022-08-16T14:01:16;5.60;;;2.70;;
13693;SDS011;6919;52.344;14.518;2022-08-16T14:03:46;4.40;;;2.80;;
13693;SDS011;6919;52.344;14.518;2022-08-16T14:06:15;3.45;;;2.60;;
13693;SDS011;6919;52.344;14.518;2022-08-16T14:08:44;4.55;;;2.65;;
13693;SDS011;6919;52.344;14.518;2022-08-16T14:11:25;5.72;;;2.67;;
13693;SDS011;6919;52.344;14.518;2022-08-16T14:13:54;3.45;;;2.42;;
13693;SDS011;6919;52.344;14.518;2022-08-16T14:16:23;4.13;;;2.45;;
13693;SDS011;6919;52.344;14.518;2022-08-16T14:19:00;4.50;;;2.58;;
13693;SDS011;6919;52.344;14.518;2022-08-16T14:21:30;5.57;;;2.38;;
13693;SDS011;6919;52.344;14.518;2022-08-16T14:24:01;7.65;;;3.28;;
13693;SDS011;6919;52.344;14.518;2022-08-16T14:26:48;3.58;;;2.80;;
13693;SDS011;6919;52.344;14.518;2022-08-16T14:29:18;3.83;;;2.63;;
13693;SDS011;6919;52.344;14.518;2022-08-16T14:31:47;4.70;;;2.80;;
13693;SDS011;6919;52.344;14.518;2022-08-16T14:34:19;5.88;;;2.42;;
13693;SDS011;6919;52.344;14.518;2022-08-16T14:36:56;4.00;;;2.70;;
13693;SDS011;6919;52.344;14.518;2022-08-16T14:39:24;4.53;;;2.45;;
13693;SDS011;6919;52.344;14.518;2022-08-16T14:41:53;6.00;;;2.60;;
13693;SDS011;6919;52.344;14.518;2022-08-16T14:44:22;3.28;;;2.60;;
13693;SDS011;6919;52.344;14.518;2022-08-16T14:46:53;6.10;;;2.63;;
13693;SDS011;6919;52.344;14.518;2022-08-16T14:49:22;4.32;;;2.40;;
13693;SDS011;6919;52.344;14.518;2022-08-16T14:51:50;3.88;;;2.50;;
13693;SDS011;6919;52.344;14.518;2022-08-16T14:54:20;9.85;;;3.20;;
13693;SDS011;6919;52.344;14.518;2022-08-16T14:56:55;3.63;;;2.42;;
13693;SDS011;6919;52.344;14.518;2022-08-16T14:59:26;2.65;;;2.38;;
13693;SDS011;6919;52.344;14.518;2022-08-16T15:01:55;3.60;;;2.55;;
13693;SDS011;6919;52.344;14.518;2022-08-16T15:04:26;4.07;;;2.95;;
13693;SDS011;6919;52.344;14.518;2022-08-16T15:07:14;5.10;;;2.92;;
13693;SDS011;6919;52.344;14.518;2022-08-16T15:09:48;4.32;;;2.90;;
13693;SDS011;6919;52.344;14.518;2022-08-16T15:12:27;4.68;;;3.22;;
13693;SDS011;6919;52.344;14.518;2022-08-16T15:15:02;9.57;;;3.13;;
13693;SDS011;6919;52.344;14.518;2022-08-16T15:17:38;6.93;;;3.00;;
13693;SDS011;6919;52.344;14.518;2022-08-16T15:20:23;3.33;;;2.72;;
13693;SDS011;6919;52.344;14.518;2022-08-16T15:22:55;5.68;;;2.60;;
13693;SDS011;6919;52.344;14.518;2022-08-16T15:25:28;4.32;;;2.33;;